Time;durP1;ratioP1;P1;durP2;ratioP2;P2;SDS_P1;SDS_P2;PMS_P1;PMS_P2;Temp;Humidity;BMP_temperature;BMP_pressure;BME280_temperature;BME280_humidity;BME280_pressure;Samples;Min_cycle;Max_cycle;Signal;HPM_P1;HPM_P2
2023/06/18 00:00:57;;;;;;;;;;;18.20;57.10;;;;;;6221275;23;20014;-79
2023/06/18 00:03:24;;;;;;;;;;;18.10;57.10;;;;;;6246650;23;19969;-82
2023/06/18 00:05:50;;;;;;;;;;;18.00;57.10;;;;;;6221357;23;20294;-82
2023/06/18 00:08:16;;;;;;;;;;;18.00;57.10;;;;;;6248220;22;19986;-78
2023/06/18 00:10:42;;;;;;;;;;;17.90;57.50;;;;;;6221170;23;19970;-78
2023/06/18 00:13:07;;;;;;;;;;;17.80;57.70;;;;;;6221323;23;19941;-82
2023/06/18 00:15:33;;;;;;;;;;;17.70;57.80;;;;;;6246400;23;19943;-79
2023/06/18 00:18:00;;;;;;;;;;;17.60;57.80;;;;;;6246571;23;19969;-78
2023/06/18 00:20:48;;;;;;;;;;;17.60;57.80;;;;;;6246304;22;19915;-83
2023/06/18 00:23:14;;;;;;;;;;;17.60;57.90;;;;;;6248062;22;19907;-78
2023/06/18 00:25:40;;;;;;;;;;;17.50;58.10;;;;;;6221150;23;19926;-83
2023/06/18 00:28:06;;;;;;;;;;;17.50;58.40;;;;;;6246533;23;20460;-78
2023/06/18 00:30:32;;;;;;;;;;;17.40;58.50;;;;;;6246296;23;19926;-79
2023/06/18 00:32:59;;;;;;;;;;;17.40;58.40;;;;;;6248012;22;19937;-82
2023/06/18 00:35:24;;;;;;;;;;;17.40;58.70;;;;;;6221024;23;19919;-79
2023/06/18 00:37:52;;;;;;;;;;;17.40;58.40;;;;;;6246258;23;19930;-79
2023/06/18 00:40:18;;;;;;;;;;;17.40;58.50;;;;;;6245977;23;19954;-82
2023/06/18 00:42:44;;;;;;;;;;;17.30;58.40;;;;;;6248026;22;19908;-78
2023/06/18 00:45:11;;;;;;;;;;;17.40;59.10;;;;;;6220739;23;19919;-83
2023/06/18 00:47:56;;;;;;;;;;;17.30;58.00;;;;;;6271696;22;19911;-78
2023/06/18 00:50:25;;;;;;;;;;;17.30;58.30;;;;;;6251087;22;20277;-83
2023/06/18 00:52:59;;;;;;;;;;;17.30;58.50;;;;;;6252483;22;19992;-83
2023/06/18 00:55:26;;;;;;;;;;;17.30;58.50;;;;;;6253052;22;20001;-78
2023/06/18 00:57:59;;;;;;;;;;;17.30;58.10;;;;;;6251537;22;19965;-78
2023/06/18 01:00:28;;;;;;;;;;;17.30;58.80;;;;;;6252889;22;20010;-78
2023/06/18 01:02:55;;;;;;;;;;;17.30;58.70;;;;;;6251495;22;19977;-84
2023/06/18 01:05:23;;;;;;;;;;;17.30;58.80;;;;;;6251222;22;19915;-84
2023/06/18 01:07:49;;;;;;;;;;;17.20;58.70;;;;;;6251931;22;19907;-83
2023/06/18 01:10:16;;;;;;;;;;;17.20;58.90;;;;;;6250739;22;19915;-84
2023/06/18 01:12:48;;;;;;;;;;;17.20;58.70;;;;;;6250842;22;19907;-79
2023/06/18 01:15:34;;;;;;;;;;;17.20;58.90;;;;;;6252276;22;19915;-83
2023/06/18 01:18:01;;;;;;;;;;;17.20;59.30;;;;;;6251059;22;19911;-83
2023/06/18 01:20:30;;;;;;;;;;;17.10;59.50;;;;;;6251233;22;19951;-78
2023/06/18 01:23:35;;;;;;;;;;;17.10;59.50;;;;;;6251663;22;19907;-78
2023/06/18 01:26:01;;;;;;;;;;;17.10;59.70;;;;;;6250846;22;19915;-83
2023/06/18 01:28:29;;;;;;;;;;;17.10;59.80;;;;;;6251316;22;19908;-79
2023/06/18 01:30:55;;;;;;;;;;;17.00;59.90;;;;;;6251192;22;19922;-78
2023/06/18 01:33:21;;;;;;;;;;;17.00;60.00;;;;;;6225755;22;20244;-83
2023/06/18 01:35:48;;;;;;;;;;;16.90;59.90;;;;;;6251349;22;20325;-79
2023/06/18 01:38:34;;;;;;;;;;;16.90;59.90;;;;;;6250955;22;19907;-79
2023/06/18 01:41:21;;;;;;;;;;;16.90;60.10;;;;;;6251019;22;19919;-79
2023/06/18 01:43:50;;;;;;;;;;;16.80;60.10;;;;;;6250778;22;19907;-79
2023/06/18 01:46:22;;;;;;;;;;;16.80;60.30;;;;;;6220014;23;19916;-79
2023/06/18 01:49:08;;;;;;;;;;;16.80;60.20;;;;;;6246623;22;19947;-78
2023/06/18 01:51:35;;;;;;;;;;;16.80;60.30;;;;;;6245461;23;19915;-79
2023/06/18 01:54:03;;;;;;;;;;;16.70;60.80;;;;;;6246081;22;20321;-84
2023/06/18 01:56:29;;;;;;;;;;;16.60;61.00;;;;;;6245387;23;19991;-78
2023/06/18 01:58:55;;;;;;;;;;;16.50;60.30;;;;;;6245917;23;19950;-84
2023/06/18 02:01:22;;;;;;;;;;;16.50;60.90;;;;;;6245650;23;20241;-79
2023/06/18 02:03:48;;;;;;;;;;;16.50;60.20;;;;;;6245874;23;19965;-79
2023/06/18 02:06:14;;;;;;;;;;;16.40;60.00;;;;;;6247395;22;19911;-80
2023/06/18 02:08:40;;;;;;;;;;;16.40;60.70;;;;;;6220225;23;19961;-85
2023/06/18 02:11:08;;;;;;;;;;;16.30;60.70;;;;;;6245391;22;19911;-79
2023/06/18 02:13:34;;;;;;;;;;;16.30;61.00;;;;;;6220586;23;19919;-85
2023/06/18 02:16:00;;;;;;;;;;;16.30;61.00;;;;;;6220130;23;19912;-79
2023/06/18 02:18:26;;;;;;;;;;;16.30;60.20;;;;;;6220273;23;20253;-84
2023/06/18 02:20:52;;;;;;;;;;;16.30;60.80;;;;;;6245216;23;19915;-79
2023/06/18 02:23:18;;;;;;;;;;;16.30;61.20;;;;;;6220087;23;19916;-86
2023/06/18 02:25:44;;;;;;;;;;;16.20;60.60;;;;;;6245364;23;19919;-85
2023/06/18 02:28:11;;;;;;;;;;;16.20;61.20;;;;;;6245745;23;19955;-85
2023/06/18 02:30:37;;;;;;;;;;;16.20;60.70;;;;;;6245524;22;20470;-85
2023/06/18 02:35:48;;;;;;;;;;;16.20;61.20;;;;;;6245521;22;19993;-86
2023/06/18 02:38:14;;;;;;;;;;;16.20;61.50;;;;;;6245916;23;19990;-86
2023/06/18 02:40:40;;;;;;;;;;;16.10;61.70;;;;;;6245407;22;19919;-79
2023/06/18 02:43:06;;;;;;;;;;;16.10;61.70;;;;;;6245785;23;19918;-79
2023/06/18 02:45:32;;;;;;;;;;;16.10;61.80;;;;;;6219951;23;19911;-85
2023/06/18 02:47:58;;;;;;;;;;;16.10;61.20;;;;;;6250470;22;19918;-86
2023/06/18 02:50:24;;;;;;;;;;;16.10;61.90;;;;;;6224776;22;19958;-80
2023/06/18 02:52:49;;;;;;;;;;;16.10;61.80;;;;;;6225128;22;19917;-85
2023/06/18 02:55:16;;;;;;;;;;;16.10;61.80;;;;;;6277313;22;19934;-80
2023/06/18 02:57:42;;;;;;;;;;;16.10;61.20;;;;;;6250649;22;19914;-86
2023/06/18 03:00:28;;;;;;;;;;;16.00;61.90;;;;;;6225080;22;20014;-85
2023/06/18 03:02:54;;;;;;;;;;;16.00;61.80;;;;;;6250342;22;20233;-79
2023/06/18 03:05:20;;;;;;;;;;;16.00;62.00;;;;;;6250380;22;20001;-85
2023/06/18 03:07:46;;;;;;;;;;;16.00;62.50;;;;;;6250745;22;19986;-79
2023/06/18 03:10:12;;;;;;;;;;;15.90;62.30;;;;;;6249882;22;19969;-86
2023/06/18 03:12:38;;;;;;;;;;;15.90;62.40;;;;;;6225155;22;20240;-79
2023/06/18 03:15:05;;;;;;;;;;;15.90;62.60;;;;;;6224673;22;19922;-86
2023/06/18 03:17:31;;;;;;;;;;;15.90;62.60;;;;;;6225092;22;19907;-86
2023/06/18 03:19:57;;;;;;;;;;;15.90;62.60;;;;;;6225252;22;19916;-79
2023/06/18 03:22:23;;;;;;;;;;;15.90;63.70;;;;;;6250002;22;19907;-79
2023/06/18 03:24:49;;;;;;;;;;;15.90;62.60;;;;;;6250037;22;20385;-79
2023/06/18 03:27:15;;;;;;;;;;;15.90;62.50;;;;;;6250104;22;19934;-79
2023/06/18 03:29:41;;;;;;;;;;;15.90;61.70;;;;;;6277286;22;19968;-86
2023/06/18 03:32:08;;;;;;;;;;;15.90;62.50;;;;;;6249685;22;19906;-86
2023/06/18 03:34:35;;;;;;;;;;;15.90;62.50;;;;;;6250180;22;19938;-79
2023/06/18 03:37:01;;;;;;;;;;;16.00;62.50;;;;;;6276725;22;19907;-86
2023/06/18 03:39:27;;;;;;;;;;;15.90;62.60;;;;;;6250149;22;19915;-86
2023/06/18 03:41:53;;;;;;;;;;;15.90;62.70;;;;;;6249443;22;19914;-79
2023/06/18 03:44:19;;;;;;;;;;;15.90;62.90;;;;;;6250512;22;20293;-79
2023/06/18 03:46:45;;;;;;;;;;;16.00;62.90;;;;;;6244476;23;19974;-86
2023/06/18 03:49:11;;;;;;;;;;;16.00;62.80;;;;;;6219918;23;20222;-79
2023/06/18 03:51:36;;;;;;;;;;;16.00;63.00;;;;;;6244752;23;20361;-87
2023/06/18 03:54:02;;;;;;;;;;;16.00;63.90;;;;;;6244908;23;19994;-79
2023/06/18 03:56:28;;;;;;;;;;;15.90;62.90;;;;;;6219450;23;19949;-86
2023/06/18 03:58:54;;;;;;;;;;;15.90;63.10;;;;;;6244879;23;19986;-84
2023/06/18 04:01:20;;;;;;;;;;;15.90;63.10;;;;;;6219505;23;19994;-84
2023/06/18 04:03:46;;;;;;;;;;;15.90;63.00;;;;;;6244972;23;19914;-82
2023/06/18 04:06:12;;;;;;;;;;;15.80;62.70;;;;;;6244622;23;19955;-87
2023/06/18 04:08:38;;;;;;;;;;;15.80;63.00;;;;;;6246710;22;19908;-87
2023/06/18 04:11:04;;;;;;;;;;;15.70;63.20;;;;;;6219322;23;19915;-87
2023/06/18 04:13:30;;;;;;;;;;;15.80;63.00;;;;;;6219619;23;20276;-87
2023/06/18 04:15:57;;;;;;;;;;;15.80;63.10;;;;;;6246595;22;19915;-87
2023/06/18 04:18:25;;;;;;;;;;;15.80;62.90;;;;;;6245208;23;19915;-87
2023/06/18 04:20:51;;;;;;;;;;;15.80;63.40;;;;;;6219989;23;20262;-86
2023/06/18 04:23:17;;;;;;;;;;;15.90;63.30;;;;;;6244711;23;19911;-79
2023/06/18 04:25:43;;;;;;;;;;;16.00;63.20;;;;;;6244456;22;19969;-80
2023/06/18 04:28:09;;;;;;;;;;;16.00;63.10;;;;;;6219513;23;19911;-79
2023/06/18 04:30:35;;;;;;;;;;;16.10;63.10;;;;;;6219246;23;20325;-86
2023/06/18 04:33:00;;;;;;;;;;;16.20;63.00;;;;;;6244886;23;20281;-86
2023/06/18 04:35:26;;;;;;;;;;;16.20;63.10;;;;;;6244582;23;19919;-86
2023/06/18 04:37:52;;;;;;;;;;;16.30;63.10;;;;;;6244763;23;19998;-79
2023/06/18 04:40:18;;;;;;;;;;;16.40;62.80;;;;;;6244651;22;19923;-85
2023/06/18 04:45:30;;;;;;;;;;;16.60;62.50;;;;;;6244598;22;20294;-79
2023/06/18 04:47:56;;;;;;;;;;;16.60;62.70;;;;;;6246652;23;19982;-79
2023/06/18 04:50:22;;;;;;;;;;;16.70;62.90;;;;;;6246624;22;19997;-79
2023/06/18 04:52:48;;;;;;;;;;;16.70;63.00;;;;;;6246787;23;19953;-85
2023/06/18 04:55:14;;;;;;;;;;;16.80;62.90;;;;;;6221299;23;19915;-85
2023/06/18 04:57:40;;;;;;;;;;;16.80;63.20;;;;;;6246572;23;20347;-84
2023/06/18 05:00:08;;;;;;;;;;;16.90;63.30;;;;;;6248032;22;19986;-79
2023/06/18 05:02:34;;;;;;;;;;;17.00;63.10;;;;;;6221084;23;19908;-85
2023/06/18 05:05:00;;;;;;;;;;;17.00;63.50;;;;;;6221383;23;20000;-85
2023/06/18 05:07:26;;;;;;;;;;;17.10;62.80;;;;;;6247383;22;19907;-80
2023/06/18 05:09:52;;;;;;;;;;;17.20;63.30;;;;;;6246605;22;19926;-79
2023/06/18 05:12:18;;;;;;;;;;;17.30;63.40;;;;;;6245843;23;19969;-84
2023/06/18 05:14:44;;;;;;;;;;;17.40;63.20;;;;;;6246280;23;20308;-79
2023/06/18 05:17:10;;;;;;;;;;;17.40;63.30;;;;;;6220492;23;19935;-84
2023/06/18 05:19:36;;;;;;;;;;;17.50;63.30;;;;;;6246451;23;19923;-79
2023/06/18 05:22:02;;;;;;;;;;;17.50;64.00;;;;;;6220258;23;19914;-84
2023/06/18 05:24:27;;;;;;;;;;;17.60;64.20;;;;;;6246414;23;19954;-82
2023/06/18 05:26:53;;;;;;;;;;;17.70;63.90;;;;;;6220179;23;19994;-83
2023/06/18 05:29:20;;;;;;;;;;;17.80;63.60;;;;;;6247757;22;19987;-79
2023/06/18 05:31:47;;;;;;;;;;;17.80;63.40;;;;;;6246986;22;19916;-83
2023/06/18 05:34:13;;;;;;;;;;;17.90;63.20;;;;;;6220689;22;20306;-82
2023/06/18 05:36:39;;;;;;;;;;;18.00;63.20;;;;;;6246905;22;19990;-78
2023/06/18 05:39:05;;;;;;;;;;;18.10;63.70;;;;;;6245893;23;20276;-83
2023/06/18 05:41:30;;;;;;;;;;;18.10;63.70;;;;;;6245456;23;19961;-83
2023/06/18 05:43:56;;;;;;;;;;;18.20;64.20;;;;;;6245921;23;19939;-78
2023/06/18 05:46:22;;;;;;;;;;;18.30;63.90;;;;;;6225002;22;19994;-79
2023/06/18 05:48:48;;;;;;;;;;;18.50;63.60;;;;;;6250968;22;19982;-79
2023/06/18 05:51:15;;;;;;;;;;;18.50;63.60;;;;;;6250937;22;19973;-80
2023/06/18 05:53:41;;;;;;;;;;;18.60;63.20;;;;;;6250624;22;19993;-78
2023/06/18 05:56:07;;;;;;;;;;;18.70;63.40;;;;;;6250451;22;19923;-83
2023/06/18 05:58:33;;;;;;;;;;;18.80;62.80;;;;;;6250373;22;19938;-82
2023/06/18 06:00:59;;;;;;;;;;;18.90;63.30;;;;;;6277196;22;19942;-78
2023/06/18 06:03:25;;;;;;;;;;;19.00;63.00;;;;;;6225305;22;20002;-79
2023/06/18 06:05:51;;;;;;;;;;;19.10;62.90;;;;;;6250420;22;19925;-82
2023/06/18 06:08:17;;;;;;;;;;;19.20;62.40;;;;;;6250685;22;19939;-79
2023/06/18 06:10:44;;;;;;;;;;;19.40;62.20;;;;;;6224940;22;19919;-78
2023/06/18 06:13:10;;;;;;;;;;;19.50;61.80;;;;;;6225500;22;19908;-78
2023/06/18 06:15:37;;;;;;;;;;;19.60;61.90;;;;;;6225020;22;19922;-78
2023/06/18 06:18:03;;;;;;;;;;;19.60;61.10;;;;;;6225156;22;19907;-81
2023/06/18 06:20:28;;;;;;;;;;;19.70;61.70;;;;;;6224966;22;19927;-79
2023/06/18 06:22:54;;;;;;;;;;;19.80;61.70;;;;;;6224971;22;19986;-78
2023/06/18 06:25:20;;;;;;;;;;;19.90;61.60;;;;;;6250273;22;20102;-82
2023/06/18 06:27:46;;;;;;;;;;;20.00;61.00;;;;;;6250656;22;19991;-79
2023/06/18 06:30:12;;;;;;;;;;;20.00;61.00;;;;;;6250093;22;19961;-79
2023/06/18 06:32:38;;;;;;;;;;;20.20;60.70;;;;;;6250581;22;19908;-83
2023/06/18 06:35:04;;;;;;;;;;;20.30;60.50;;;;;;6224987;22;19995;-78
2023/06/18 06:37:32;;;;;;;;;;;20.40;59.90;;;;;;6277294;22;19915;-80
2023/06/18 06:39:58;;;;;;;;;;;20.50;60.70;;;;;;6225635;22;19915;-82
2023/06/18 06:42:24;;;;;;;;;;;20.50;59.60;;;;;;6224404;22;19981;-82
2023/06/18 06:44:50;;;;;;;;;;;20.70;59.20;;;;;;6224751;22;19969;-83
2023/06/18 06:47:17;;;;;;;;;;;20.80;59.40;;;;;;6276415;22;19911;-80
2023/06/18 06:49:45;;;;;;;;;;;20.90;59.00;;;;;;6250345;22;19969;-79
2023/06/18 06:52:11;;;;;;;;;;;21.00;59.10;;;;;;6250086;22;19993;-83
2023/06/18 06:54:37;;;;;;;;;;;21.10;58.80;;;;;;6250435;22;19914;-79
2023/06/18 06:57:03;;;;;;;;;;;21.30;57.90;;;;;;6249862;22;19907;-83
2023/06/18 06:59:30;;;;;;;;;;;21.50;57.50;;;;;;6250078;22;19915;-82
2023/06/18 07:02:16;;;;;;;;;;;21.60;56.60;;;;;;6276478;22;19907;-79
2023/06/18 07:04:47;;;;;;;;;;;21.70;56.60;;;;;;6153444;23;20223;-80
2023/06/18 07:07:14;;;;;;;;;;;22.00;56.80;;;;;;6129481;23;20008;-83
2023/06/18 07:09:40;;;;;;;;;;;22.10;56.40;;;;;;6128922;23;19921;-78
2023/06/18 07:12:07;;;;;;;;;;;22.30;56.00;;;;;;6128327;23;19908;-84
2023/06/18 07:14:33;;;;;;;;;;;22.50;55.40;;;;;;6153593;23;19942;-80
2023/06/18 07:16:58;;;;;;;;;;;22.60;55.00;;;;;;6152963;23;19976;-85
2023/06/18 07:19:24;;;;;;;;;;;22.60;54.10;;;;;;6153493;23;19913;-79
2023/06/18 07:21:50;;;;;;;;;;;22.70;54.30;;;;;;6128473;23;20302;-84
2023/06/18 07:24:17;;;;;;;;;;;22.80;54.40;;;;;;6153926;23;20339;-81
2023/06/18 07:26:46;;;;;;;;;;;22.80;53.80;;;;;;6128285;23;19948;-80
2023/06/18 07:29:12;;;;;;;;;;;22.90;53.70;;;;;;6129339;23;19909;-80
2023/06/18 07:31:38;;;;;;;;;;;23.00;53.50;;;;;;6153095;23;19944;-85
2023/06/18 07:34:04;;;;;;;;;;;23.20;52.80;;;;;;6129022;23;20422;-79
2023/06/18 07:36:30;;;;;;;;;;;23.20;51.10;;;;;;6153243;23;19912;-84
2023/06/18 07:38:56;;;;;;;;;;;23.40;51.50;;;;;;6129709;23;20337;-87
2023/06/18 07:41:22;;;;;;;;;;;23.50;51.70;;;;;;6167801;22;20018;-86
2023/06/18 07:43:48;;;;;;;;;;;23.50;50.90;;;;;;6224739;22;19908;-79
2023/06/18 07:46:14;;;;;;;;;;;23.60;51.40;;;;;;6276789;22;19986;-87
2023/06/18 07:48:40;;;;;;;;;;;23.80;51.40;;;;;;6250266;22;19915;-88
2023/06/18 07:51:06;;;;;;;;;;;23.90;51.20;;;;;;6250072;22;19915;-81
2023/06/18 07:53:32;;;;;;;;;;;24.00;51.60;;;;;;6277040;22;20232;-87
2023/06/18 07:55:59;;;;;;;;;;;24.10;50.30;;;;;;6250116;22;19947;-85
2023/06/18 07:58:25;;;;;;;;;;;24.20;50.00;;;;;;6249988;22;19986;-80
2023/06/18 08:00:51;;;;;;;;;;;24.30;49.40;;;;;;6224280;22;20352;-80
2023/06/18 08:03:17;;;;;;;;;;;24.40;48.50;;;;;;6249944;22;19911;-88
2023/06/18 08:05:43;;;;;;;;;;;24.50;48.50;;;;;;6249819;22;19915;-81
2023/06/18 08:08:09;;;;;;;;;;;24.60;48.30;;;;;;6250316;22;19957;-79
2023/06/18 08:10:35;;;;;;;;;;;24.70;47.60;;;;;;6249761;22;19961;-86
2023/06/18 08:13:02;;;;;;;;;;;24.70;47.40;;;;;;6250157;22;19926;-82
2023/06/18 08:15:28;;;;;;;;;;;24.90;47.60;;;;;;6249711;22;20410;-87
2023/06/18 08:17:54;;;;;;;;;;;25.00;46.80;;;;;;6250215;22;19907;-86
2023/06/18 08:20:20;;;;;;;;;;;25.10;47.00;;;;;;6249940;22;19997;-80
2023/06/18 08:22:46;;;;;;;;;;;25.30;46.60;;;;;;6226296;22;19907;-80
2023/06/18 08:25:11;;;;;;;;;;;25.40;46.00;;;;;;6226264;22;19922;-88
2023/06/18 08:27:37;;;;;;;;;;;25.50;45.60;;;;;;6251858;22;19934;-87
2023/06/18 08:30:04;;;;;;;;;;;25.60;45.20;;;;;;6277030;22;20343;-83
2023/06/18 08:32:30;;;;;;;;;;;25.70;44.80;;;;;;6251667;22;19911;-85
2023/06/18 08:34:56;;;;;;;;;;;25.90;44.80;;;;;;6279310;22;20014;-81
2023/06/18 08:37:22;;;;;;;;;;;26.00;44.70;;;;;;6251669;22;19934;-80
2023/06/18 08:39:48;;;;;;;;;;;26.10;44.30;;;;;;6226805;22;19937;-85
2023/06/18 08:42:20;;;;;;;;;;;26.10;43.90;;;;;;6251237;22;19937;-81
2023/06/18 08:44:46;;;;;;;;;;;26.20;43.80;;;;;;6227447;22;19968;-87
2023/06/18 08:47:12;;;;;;;;;;;26.20;43.30;;;;;;6225735;22;19910;-86
2023/06/18 08:49:41;;;;;;;;;;;26.20;42.60;;;;;;6251970;22;19922;-82
2023/06/18 08:52:09;;;;;;;;;;;26.20;42.20;;;;;;6251352;22;19953;-85
2023/06/18 08:54:37;;;;;;;;;;;26.30;42.30;;;;;;6252261;22;19915;-83
2023/06/18 08:57:40;;;;;;;;;;;26.40;42.30;;;;;;6251070;22;19927;-85
2023/06/18 09:00:08;;;;;;;;;;;26.50;42.10;;;;;;6278896;22;19923;-86
2023/06/18 09:02:34;;;;;;;;;;;26.60;41.10;;;;;;6251349;22;19907;-80
2023/06/18 09:05:05;;;;;;;;;;;26.70;40.10;;;;;;6251000;22;20002;-80
2023/06/18 09:07:31;;;;;;;;;;;26.80;39.90;;;;;;6250480;22;19950;-89
2023/06/18 09:09:57;;;;;;;;;;;26.90;39.90;;;;;;6251349;22;19981;-82
2023/06/18 09:12:23;;;;;;;;;;;27.00;41.30;;;;;;6277804;22;20311;-82
2023/06/18 09:14:49;;;;;;;;;;;27.10;41.40;;;;;;6225777;22;19964;-80
2023/06/18 09:17:16;;;;;;;;;;;27.20;41.10;;;;;;6251029;22;19907;-84
2023/06/18 09:19:43;;;;;;;;;;;27.30;40.90;;;;;;6251615;22;20289;-83
2023/06/18 09:22:28;;;;;;;;;;;27.40;40.80;;;;;;6250763;22;19918;-85
2023/06/18 09:25:31;;;;;;;;;;;27.50;41.10;;;;;;6250923;22;20324;-81
2023/06/18 09:27:57;;;;;;;;;;;27.60;41.30;;;;;;6250749;22;19929;-86
2023/06/18 09:30:23;;;;;;;;;;;27.70;41.20;;;;;;6277811;22;19915;-84
2023/06/18 09:32:49;;;;;;;;;;;28.00;41.20;;;;;;6250381;22;19907;-84
2023/06/18 09:35:17;;;;;;;;;;;28.20;40.30;;;;;;6250688;22;20007;-82
2023/06/18 09:37:44;;;;;;;;;;;28.30;39.90;;;;;;6251008;22;19929;-81
2023/06/18 09:40:28;;;;;;;;;;;28.60;39.20;;;;;;6250698;22;19927;-85
2023/06/18 09:43:00;;;;;;;;;;;29.00;39.30;;;;;;6250302;22;20305;-88
2023/06/18 09:45:26;;;;;;;;;;;29.30;39.00;;;;;;6251266;22;19919;-84
2023/06/18 09:47:52;;;;;;;;;;;29.60;37.70;;;;;;6225303;22;20218;-82
2023/06/18 09:50:18;;;;;;;;;;;30.10;37.70;;;;;;6250638;22;19961;-85
2023/06/18 09:52:47;;;;;;;;;;;30.80;36.10;;;;;;6251311;22;20328;-84
2023/06/18 09:55:32;;;;;;;;;;;31.40;35.30;;;;;;6224491;22;19934;-84
2023/06/18 09:57:59;;;;;;;;;;;32.30;33.80;;;;;;6225055;22;19960;-82
2023/06/18 10:00:26;;;;;;;;;;;33.10;33.40;;;;;;6250678;22;19919;-84
2023/06/18 10:02:52;;;;;;;;;;;33.90;32.40;;;;;;6226175;22;20403;-83
2023/06/18 10:05:18;;;;;;;;;;;34.50;30.40;;;;;;6250775;22;19939;-80
2023/06/18 10:07:48;;;;;;;;;;;35.20;30.40;;;;;;6250928;22;20343;-83
2023/06/18 10:10:14;;;;;;;;;;;35.40;29.00;;;;;;6250886;22;19916;-82
2023/06/18 10:12:59;;;;;;;;;;;35.80;28.90;;;;;;6251252;22;19990;-85
2023/06/18 10:15:25;;;;;;;;;;;36.10;28.00;;;;;;6225407;22;19919;-87
2023/06/18 10:17:52;;;;;;;;;;;36.60;27.10;;;;;;6225785;22;19911;-86
2023/06/18 10:20:18;;;;;;;;;;;37.20;27.50;;;;;;6250717;22;19925;-86
2023/06/18 10:23:06;;;;;;;;;;;37.40;26.80;;;;;;6249860;22;20313;-82
2023/06/18 10:25:32;;;;;;;;;;;38.00;26.40;;;;;;6249537;22;19993;-80
2023/06/18 10:27:58;;;;;;;;;;;38.60;25.50;;;;;;6249423;22;19907;-81
2023/06/18 10:30:25;;;;;;;;;;;38.90;24.60;;;;;;6249562;22;19919;-82
2023/06/18 10:32:51;;;;;;;;;;;39.40;24.50;;;;;;6249600;22;19911;-83
2023/06/18 10:35:17;;;;;;;;;;;39.60;23.00;;;;;;6224145;22;20308;-81
2023/06/18 10:37:44;;;;;;;;;;;40.10;23.50;;;;;;6250315;22;20244;-81
2023/06/18 10:40:11;;;;;;;;;;;40.60;21.90;;;;;;6249747;22;20386;-81
2023/06/18 10:42:37;;;;;;;;;;;41.10;22.50;;;;;;6223699;22;19907;-81
2023/06/18 10:45:23;;;;;;;;;;;41.70;21.30;;;;;;6249890;22;19969;-83
2023/06/18 10:48:28;;;;;;;;;;;42.30;21.70;;;;;;6244018;23;19912;-79
2023/06/18 10:51:31;;;;;;;;;;;42.80;20.80;;;;;;6245950;22;19990;-80
2023/06/18 10:54:37;;;;;;;;;;;43.20;20.10;;;;;;6246417;23;19908;-80
2023/06/18 10:57:04;;;;;;;;;;;43.40;18.60;;;;;;6244215;23;19919;-80
2023/06/18 10:59:42;;;;;;;;;;;43.80;18.70;;;;;;6219694;23;20244;-80
2023/06/18 11:02:09;;;;;;;;;;;44.10;17.70;;;;;;6244148;23;19914;-80
2023/06/18 11:04:36;;;;;;;;;;;44.10;17.90;;;;;;6219274;23;19915;-80
2023/06/18 11:07:15;;;;;;;;;;;44.40;17.10;;;;;;6243730;23;19990;-82
2023/06/18 11:10:01;;;;;;;;;;;44.70;17.00;;;;;;6244585;22;20241;-82
2023/06/18 11:12:28;;;;;;;;;;;44.70;17.10;;;;;;6244260;23;19908;-80
2023/06/18 11:18:01;;;;;;;;;;;45.70;16.40;;;;;;6244872;23;19915;-81
2023/06/18 11:20:30;;;;;;;;;;;45.70;16.40;;;;;;6245673;22;19923;-80
2023/06/18 11:22:58;;;;;;;;;;;45.50;15.90;;;;;;6244289;23;19914;-79
2023/06/18 11:25:25;;;;;;;;;;;45.70;14.90;;;;;;6244258;23;19915;-79
2023/06/18 11:27:53;;;;;;;;;;;46.40;14.90;;;;;;6244177;23;19911;-79
2023/06/18 11:30:19;;;;;;;;;;;46.90;14.90;;;;;;6243980;22;19922;-79
2023/06/18 11:32:46;;;;;;;;;;;47.20;14.30;;;;;;6244204;23;19927;-79
2023/06/18 11:35:13;;;;;;;;;;;47.30;13.40;;;;;;6245359;22;20313;-81
2023/06/18 11:38:00;;;;;;;;;;;47.50;14.40;;;;;;6244320;23;20216;-82
2023/06/18 11:40:26;;;;;;;;;;;47.60;14.60;;;;;;6245843;23;19919;-79
2023/06/18 11:42:53;;;;;;;;;;;47.70;13.00;;;;;;6243960;23;19912;-79
2023/06/18 11:45:19;;;;;;;;;;;47.50;13.10;;;;;;6243698;22;19916;-80
2023/06/18 11:47:48;;;;;;;;;;;48.10;13.70;;;;;;6249035;22;19986;-79
2023/06/18 11:50:15;;;;;;;;;;;48.40;13.70;;;;;;6248907;22;19919;-79
2023/06/18 11:52:41;;;;;;;;;;;48.40;13.00;;;;;;6276318;22;19915;-80
2023/06/18 11:55:07;;;;;;;;;;;48.80;13.30;;;;;;6248684;22;19915;-82
2023/06/18 11:57:34;;;;;;;;;;;49.00;13.70;;;;;;6248845;22;19943;-81
2023/06/18 12:00:00;;;;;;;;;;;48.90;12.90;;;;;;6249652;22;19922;-79
2023/06/18 12:02:27;;;;;;;;;;;48.50;11.50;;;;;;6248628;22;20005;-81
2023/06/18 12:05:00;;;;;;;;;;;48.30;12.50;;;;;;6224135;22;20080;-79
2023/06/18 12:07:26;;;;;;;;;;;48.30;13.00;;;;;;6249028;22;20378;-79
2023/06/18 12:09:53;;;;;;;;;;;48.80;12.60;;;;;;6249497;22;19919;-80
2023/06/18 12:12:43;;;;;;;;;;;49.50;12.40;;;;;;6223692;22;19914;-79
2023/06/18 12:15:17;;;;;;;;;;;49.80;12.60;;;;;;6276370;22;20459;-79
2023/06/18 12:18:21;;;;;;;;;;;49.80;11.80;;;;;;6224590;22;19946;-79
2023/06/18 12:20:48;;;;;;;;;;;49.80;11.80;;;;;;6276395;22;20002;-79
2023/06/18 12:23:14;;;;;;;;;;;49.70;11.70;;;;;;6224136;22;19982;-79
2023/06/18 12:25:40;;;;;;;;;;;49.90;10.80;;;;;;6223290;22;20339;-80
2023/06/18 12:28:06;;;;;;;;;;;49.90;12.00;;;;;;6276437;22;19941;-80
2023/06/18 12:30:36;;;;;;;;;;;49.80;11.80;;;;;;6223539;22;19997;-79
2023/06/18 12:33:21;;;;;;;;;;;48.50;12.20;;;;;;6223444;22;19961;-82
2023/06/18 12:35:50;;;;;;;;;;;47.80;12.80;;;;;;6248143;22;19993;-82
2023/06/18 12:38:16;;;;;;;;;;;47.90;12.70;;;;;;6248957;22;19982;-79
2023/06/18 12:41:01;;;;;;;;;;;47.70;12.80;;;;;;6223058;22;19919;-80
2023/06/18 12:43:27;;;;;;;;;;;47.90;12.70;;;;;;6249079;22;19911;-82
2023/06/18 12:45:53;;;;;;;;;;;47.90;12.60;;;;;;6223156;22;19916;-81
2023/06/18 12:48:20;;;;;;;;;;;47.50;13.10;;;;;;6223821;22;19907;-81
2023/06/18 12:50:48;;;;;;;;;;;46.80;13.10;;;;;;6248855;22;20428;-80
2023/06/18 12:53:33;;;;;;;;;;;46.80;13.40;;;;;;6249184;22;19914;-82
2023/06/18 12:56:20;;;;;;;;;;;46.50;13.80;;;;;;6275862;22;19922;-80
2023/06/18 12:58:46;;;;;;;;;;;45.50;13.90;;;;;;6249011;22;19907;-80
2023/06/18 13:01:13;;;;;;;;;;;44.80;14.80;;;;;;6248937;22;20229;-79
2023/06/18 13:06:23;;;;;;;;;;;43.00;15.50;;;;;;6276215;22;19921;-80
2023/06/18 13:08:49;;;;;;;;;;;42.10;16.00;;;;;;6277066;22;19939;-80
2023/06/18 13:11:15;;;;;;;;;;;41.50;16.20;;;;;;6224319;22;19993;-80
2023/06/18 13:13:42;;;;;;;;;;;40.90;16.70;;;;;;6250556;22;20376;-80
2023/06/18 13:16:08;;;;;;;;;;;40.60;17.00;;;;;;6224422;22;19911;-80
2023/06/18 13:18:34;;;;;;;;;;;40.40;18.00;;;;;;6225396;22;19918;-82
2023/06/18 13:21:02;;;;;;;;;;;40.00;18.60;;;;;;6225237;22;20356;-82
2023/06/18 13:23:28;;;;;;;;;;;39.70;18.00;;;;;;6251214;22;20264;-82
2023/06/18 13:25:56;;;;;;;;;;;39.50;18.30;;;;;;6250539;22;19946;-81
2023/06/18 13:28:22;;;;;;;;;;;39.40;18.00;;;;;;6251224;22;19964;-83
2023/06/18 13:30:48;;;;;;;;;;;39.00;18.60;;;;;;6250782;22;19994;-81
2023/06/18 13:33:14;;;;;;;;;;;38.50;18.90;;;;;;6225605;22;19911;-81
2023/06/18 13:35:39;;;;;;;;;;;38.20;19.00;;;;;;6250776;22;19970;-82
2023/06/18 13:38:07;;;;;;;;;;;38.10;18.90;;;;;;6250704;22;19939;-81
2023/06/18 13:40:34;;;;;;;;;;;37.80;19.70;;;;;;6251006;22;19986;-82
2023/06/18 13:43:00;;;;;;;;;;;37.70;20.00;;;;;;6277871;22;19911;-82
2023/06/18 13:45:26;;;;;;;;;;;37.40;20.40;;;;;;6250824;22;19964;-83
2023/06/18 13:47:52;;;;;;;;;;;37.30;19.80;;;;;;6245547;23;19982;-83
2023/06/18 13:50:17;;;;;;;;;;;37.30;20.10;;;;;;6220155;23;19919;-83
2023/06/18 13:52:43;;;;;;;;;;;37.10;20.80;;;;;;6220479;23;19952;-82
2023/06/18 13:55:09;;;;;;;;;;;36.70;20.90;;;;;;6219670;23;19920;-81
2023/06/18 13:57:37;;;;;;;;;;;36.30;20.60;;;;;;6245302;23;19907;-83
2023/06/18 14:00:04;;;;;;;;;;;36.40;21.40;;;;;;6245368;23;19915;-82
2023/06/18 14:02:30;;;;;;;;;;;36.40;20.90;;;;;;6245231;23;19907;-82
2023/06/18 14:04:56;;;;;;;;;;;36.50;20.60;;;;;;6245631;22;19922;-83
2023/06/18 14:07:22;;;;;;;;;;;36.40;20.60;;;;;;6245070;23;19907;-82
2023/06/18 14:09:48;;;;;;;;;;;36.20;21.10;;;;;;6245369;22;19994;-84
2023/06/18 14:12:15;;;;;;;;;;;36.10;21.20;;;;;;6245385;23;19907;-82
2023/06/18 14:14:41;;;;;;;;;;;35.80;21.90;;;;;;6220366;23;19925;-82
2023/06/18 14:17:10;;;;;;;;;;;35.90;21.90;;;;;;6245054;23;20348;-83
2023/06/18 14:19:56;;;;;;;;;;;36.10;22.40;;;;;;6244967;23;19916;-81
2023/06/18 14:22:22;;;;;;;;;;;36.10;22.20;;;;;;6245139;23;19914;-82
2023/06/18 14:24:48;;;;;;;;;;;36.10;21.90;;;;;;6245549;22;19915;-84
2023/06/18 14:27:14;;;;;;;;;;;35.90;21.70;;;;;;6244863;23;19922;-82
2023/06/18 14:29:40;;;;;;;;;;;35.80;22.70;;;;;;6220334;23;19916;-87
2023/06/18 14:32:06;;;;;;;;;;;35.70;22.10;;;;;;6218986;23;20350;-82
2023/06/18 14:34:32;;;;;;;;;;;35.50;21.60;;;;;;6220124;23;19916;-81